createdAt,value
2022-10-23T00:01:45.818Z,13.40
2022-10-23T00:04:19.714Z,13.40
2022-10-23T00:06:50.731Z,13.40
2022-10-23T00:09:27.414Z,13.40
2022-10-23T00:15:05.669Z,13.40
2022-10-23T00:17:38.604Z,13.40
2022-10-23T00:20:44.665Z,13.30
2022-10-23T00:23:05.528Z,13.40
2022-10-23T01:13:29.248Z,13.50
2022-10-23T01:16:00.393Z,13.50
2022-10-23T01:18:31.327Z,13.50
2022-10-23T01:21:01.022Z,13.50
2022-10-23T01:23:37.120Z,13.50
2022-10-23T01:26:26.637Z,13.50
2022-10-23T01:28:58.291Z,13.50
2022-10-23T01:31:30.553Z,13.50
2022-10-23T01:34:00.553Z,13.40
2022-10-23T01:36:30.091Z,13.40
2022-10-23T01:39:00.003Z,13.40
2022-10-23T01:44:14.778Z,13.30
2022-10-23T01:46:43.729Z,13.30
2022-10-23T01:49:12.964Z,13.30
2022-10-23T01:51:42.007Z,13.30
2022-10-23T01:54:11.178Z,13.20
2022-10-23T01:56:40.417Z,13.20
2022-10-23T01:59:10.762Z,13.20
2022-10-23T02:01:41.393Z,13.20
2022-10-23T02:04:10.828Z,13.10
2022-10-23T02:06:39.005Z,13.10
2022-10-23T02:09:07.421Z,13.10
2022-10-23T02:42:17.546Z,13.60
2022-10-23T02:44:50.048Z,13.60
2022-10-23T02:47:24.822Z,13.60
2022-10-23T02:49:57.730Z,13.60
2022-10-23T02:52:29.531Z,13.60
2022-10-23T02:55:06.480Z,13.60
2022-10-23T02:57:38.035Z,13.60
2022-10-23T03:33:35.310Z,13.60
2022-10-23T03:36:06.081Z,13.60
2022-10-23T03:38:36.027Z,13.60
2022-10-23T03:41:05.870Z,13.60
2022-10-23T03:43:37.888Z,13.70
2022-10-23T04:17:09.096Z,13.70
2022-10-23T05:20:37.232Z,13.50
2022-10-23T05:23:08.111Z,13.50
2022-10-23T05:25:36.584Z,13.60
2022-10-23T05:28:04.718Z,13.60
2022-10-23T05:30:33.486Z,13.60
2022-10-23T05:33:02.275Z,13.60
2022-10-23T05:35:30.942Z,13.60
2022-10-23T05:38:00.311Z,13.60
2022-10-23T05:40:30.182Z,13.60
2022-10-23T05:42:58.320Z,13.60
2022-10-23T05:45:26.901Z,13.50
2022-10-23T05:48:01.335Z,13.60
2022-10-23T05:50:37.167Z,13.60
2022-10-23T07:37:14.781Z,14.40
2022-10-23T07:39:43.143Z,14.50
2022-10-23T07:42:12.000Z,14.50
2022-10-23T07:44:40.248Z,14.50
2022-10-23T07:47:08.385Z,14.60
2022-10-23T07:49:36.867Z,14.60
2022-10-23T07:52:05.952Z,14.60
2022-10-23T08:09:52.037Z,14.80
2022-10-23T08:26:33.262Z,15.20
2022-10-23T09:55:32.166Z,16.20
2022-10-23T09:58:00.066Z,16.30
2022-10-23T10:00:28.932Z,16.40
2022-10-23T10:02:58.617Z,16.40
2022-10-23T10:05:28.082Z,16.50
2022-10-23T10:07:58.037Z,16.50
2022-10-23T10:21:27.269Z,16.60
2022-10-23T10:24:00.584Z,16.70
2022-10-23T10:43:45.490Z,17.20
2022-10-23T15:53:22.092Z,18.30
2022-10-23T15:55:50.065Z,18.30
2022-10-23T15:58:18.070Z,18.40
2022-10-23T16:33:05.039Z,17.70
2022-10-23T16:35:33.028Z,17.60
2022-10-23T16:38:00.939Z,17.60
2022-10-23T16:40:28.893Z,17.60
2022-10-23T16:42:57.973Z,17.60
2022-10-23T16:45:25.833Z,17.60
2022-10-23T16:47:53.828Z,17.80
2022-10-23T17:20:48.198Z,17.70
2022-10-23T17:30:12.685Z,17.80
2022-10-23T18:47:50.338Z,17.40
2022-10-23T18:50:21.093Z,17.30
2022-10-23T18:52:49.281Z,17.40
2022-10-23T18:55:17.334Z,17.40
2022-10-23T18:57:45.994Z,17.40
2022-10-23T19:00:15.663Z,17.40
2022-10-23T19:02:44.819Z,17.50
2022-10-23T19:05:17.243Z,17.50
2022-10-23T19:07:46.994Z,17.70
2022-10-23T19:10:18.005Z,17.70
2022-10-23T19:12:46.963Z,17.60
2022-10-23T19:15:18.596Z,17.30
2022-10-23T19:17:54.628Z,16.90
2022-10-23T19:20:24.378Z,16.60
2022-10-23T19:22:53.681Z,16.40
2022-10-23T19:25:25.545Z,16.10
2022-10-23T19:27:54.700Z,15.90
2022-10-23T19:30:23.418Z,15.80
2022-10-23T19:32:52.429Z,15.60
2022-10-23T19:43:28.269Z,15.40
2022-10-23T19:45:56.279Z,15.40
2022-10-23T19:48:24.302Z,15.40
2022-10-23T19:50:52.359Z,15.40
2022-10-23T19:53:20.373Z,15.40
2022-10-23T19:55:48.311Z,15.40
2022-10-23T19:58:16.551Z,15.40
2022-10-23T20:00:45.809Z,15.40
2022-10-23T20:03:13.703Z,15.40
2022-10-23T20:05:45.005Z,15.40
2022-10-23T20:13:36.781Z,15.60
2022-10-23T20:46:58.610Z,16.00
2022-10-23T20:49:26.599Z,16.00
2022-10-23T20:51:55.760Z,15.90
2022-10-23T20:54:24.351Z,15.90
2022-10-23T20:56:52.485Z,15.80
2022-10-23T20:59:20.605Z,15.80
2022-10-23T21:04:32.072Z,15.80
2022-10-23T21:07:16.453Z,15.80
2022-10-23T21:09:44.581Z,15.80
2022-10-23T21:12:12.596Z,15.80
2022-10-23T21:14:40.449Z,15.80
2022-10-23T21:17:10.806Z,15.80
2022-10-23T21:19:40.891Z,15.80
2022-10-23T21:22:09.105Z,15.80
2022-10-23T21:24:37.159Z,15.80
2022-10-23T21:27:05.173Z,15.70
2022-10-23T21:29:33.215Z,15.80
2022-10-23T22:07:16.181Z,15.60
2022-10-23T22:09:44.410Z,15.70
2022-10-23T22:12:12.688Z,15.50
2022-10-23T22:14:40.619Z,15.50
2022-10-23T22:17:08.514Z,15.50
2022-10-23T23:14:15.749Z,15.40
2022-10-23T23:16:45.548Z,15.40
2022-10-23T23:19:13.608Z,15.40
2022-10-23T23:21:41.855Z,15.40
2022-10-23T23:24:11.120Z,15.40
2022-10-23T23:26:38.984Z,15.40
2022-10-23T23:29:07.161Z,15.40
2022-10-23T23:31:36.492Z,15.40
2022-10-23T23:34:04.433Z,15.30
2022-10-23T23:36:37.356Z,15.30
2022-10-23T23:39:09.622Z,15.40
2022-10-23T23:41:48.857Z,15.40
2022-10-23T23:44:31.674Z,15.30
2022-10-23T23:47:01.798Z,15.30
2022-10-23T23:49:29.818Z,15.40
2022-10-23T23:51:57.679Z,15.30
2022-10-23T23:54:25.628Z,15.30
2022-10-23T23:56:56.801Z,15.40
2022-10-23T23:59:24.586Z,15.30
